This is the latest recevied weather packets stored in our database for station/object W5HKR. If no packets are shown the sender has not sent any weather packets the latest 10 day(s).
| Time | Temp. | Humidity | Pressure | Rain* | Wind** | Luminosity | Snow |
|---|---|---|---|---|---|---|---|
| 1777771997 | 19.44° C | 53% | 991.8 hPa | 0 mm | - | - | - |
| 1777771698 | 19.44° C | 52% | 991.7 hPa | 0 mm | - | - | - |
| 1777771397 | 18.33° C | 91% | 990.6 hPa | 0 mm | - | - | - |
| 1777771308 | 20° C | 50% | 991.3 hPa | 0 mm | - | - | - |
| 1777771097 | 18.33° C | 91% | 990.6 hPa | 0 mm | - | - | - |
| 1777770798 | 20.56° C | 48% | 991 hPa | 0 mm | - | - | - |
| 1777770498 | 20.56° C | 49% | 991.3 hPa | 0 mm | - | - | - |
| 1777770228 | 18.33° C | 91% | 990.6 hPa | 0 mm | - | - | - |
| 1777770198 | 20.56° C | 47% | 991.2 hPa | 0 mm | - | - | - |
| 1777769897 | 18.33° C | 91% | 990.6 hPa | 0 mm | - | - | - |
| 1777769598 | 18.33° C | 91% | 990.6 hPa | 0 mm | - | - | - |
| 1777769297 | 21.11° C | 47% | 991.5 hPa | 0 mm | - | - | - |
| 1777769149 | 21.11° C | 45% | 991.6 hPa | 0 mm | - | - | - |
| 1777768999 | 18.33° C | 91% | 990.6 hPa | 0 mm | - | - | - |
| 1777768696 | 21.67° C | 45% | 991.4 hPa | 0 mm | - | - | - |
| 1777768398 | 18.33° C | 91% | 990.6 hPa | 0 mm | - | - | - |
| 1777768100 | 18.33° C | 91% | 990.6 hPa | 0 mm | - | - | - |
| 1777768069 | 18.33° C | 91% | 990.6 hPa | 0 mm | - | - | - |
| 1777767797 | 18.33° C | 91% | 990.6 hPa | 0 mm | - | - | - |
| 1777767498 | 18.33° C | 91% | 990.6 hPa | 0 mm | - | - | - |
| 1777767197 | 18.33° C | 91% | 990.6 hPa | 0 mm | - | - | - |
| 1777766987 | 22.22° C | 43% | 991.5 hPa | 0 mm | - | - | - |
| 1777766897 | 18.33° C | 91% | 990.6 hPa | 0 mm | - | - | - |
| 1777766597 | 22.78° C | 42% | 990.9 hPa | 0 mm | - | - | - |
| 1777766297 | 18.33° C | 91% | 990.6 hPa | 0 mm | - | - | - |
* Rain latest hour (hover to see other rain measurements)
** Current wind speed in m/s (hover to see current wind gust speed)